createdAt,value
2023-01-25T00:00:30.053Z,0.20
2023-01-25T00:02:57.086Z,0.20
2023-01-25T00:05:24.055Z,0.20
2023-01-25T00:07:50.706Z,0.20
2023-01-25T00:10:17.353Z,0.20
2023-01-25T00:12:43.990Z,0.20
2023-01-25T00:15:11.011Z,0.20
2023-01-25T00:17:37.692Z,0.20
2023-01-25T00:20:04.465Z,0.20
2023-01-25T00:22:31.224Z,0.20
2023-01-25T00:24:57.786Z,0.20
2023-01-25T00:27:24.447Z,0.20
2023-01-25T00:29:51.058Z,0.20
2023-01-25T00:32:17.834Z,0.20
2023-01-25T00:34:48.630Z,0.20
2023-01-25T00:37:28.202Z,0.10
2023-01-25T00:39:57.446Z,0.20
2023-01-25T00:42:24.026Z,0.10
2023-01-25T00:44:50.820Z,0.10
2023-01-25T00:47:19.972Z,0.10
2023-01-25T00:49:46.638Z,0.10
2023-01-25T00:52:14.130Z,0.10
2023-01-25T00:54:41.620Z,0.10
2023-01-25T00:57:08.929Z,0.10
2023-01-25T00:59:35.888Z,0.10
2023-01-25T01:02:03.044Z,0.10
2023-01-25T01:04:30.862Z,0.10
2023-01-25T01:06:57.561Z,0.10
2023-01-25T01:09:24.258Z,0.10
2023-01-25T01:11:52.904Z,0.10
2023-01-25T01:14:20.930Z,0.10
2023-01-25T01:16:47.950Z,0.10
2023-01-25T01:19:14.682Z,0.10
2023-01-25T01:21:41.585Z,0.10
2023-01-25T01:24:10.430Z,0.10
2023-01-25T01:26:37.262Z,0.10
2023-01-25T01:29:04.602Z,0.10
2023-01-25T01:31:31.825Z,0.10
2023-01-25T01:34:16.681Z,0.10
2023-01-25T01:36:43.542Z,0.10
2023-01-25T01:39:10.533Z,0.10
2023-01-25T01:41:37.938Z,0.10
2023-01-25T01:44:06.272Z,0.10
2023-01-25T01:46:39.110Z,0.10
2023-01-25T01:49:21.653Z,0.10
2023-01-25T01:51:52.702Z,0.10
2023-01-25T01:54:30.888Z,0.10
2023-01-25T01:57:12.862Z,0.10
2023-01-25T02:00:13.359Z,0.10
2023-01-25T02:02:41.319Z,0.10
2023-01-25T02:05:16.714Z,0.10
2023-01-25T02:07:46.876Z,0.10
2023-01-25T02:10:14.282Z,0.10
2023-01-25T02:12:43.851Z,0.10
2023-01-25T02:15:11.311Z,0.10
2023-01-25T02:17:39.769Z,0.10
2023-01-25T02:20:18.716Z,0.10
2023-01-25T02:22:52.731Z,0.10
2023-01-25T02:25:19.625Z,0.10
2023-01-25T02:27:57.715Z,0.10
2023-01-25T02:30:26.081Z,0.10
2023-01-25T02:32:52.681Z,0.10
2023-01-25T02:35:35.878Z,0.10
2023-01-25T02:38:02.903Z,0.10
2023-01-25T02:40:32.747Z,0.10
2023-01-25T02:42:59.385Z,0.10
2023-01-25T02:45:29.774Z,0.10
2023-01-25T02:47:56.477Z,0.10
2023-01-25T02:50:23.240Z,0.10
2023-01-25T02:52:49.939Z,0.10
2023-01-25T02:55:18.724Z,0.10
2023-01-25T02:57:46.118Z,0.10
2023-01-25T03:00:15.210Z,0.10
2023-01-25T03:02:43.314Z,0.10
2023-01-25T03:05:11.227Z,0.10
2023-01-25T03:07:38.644Z,0.10
2023-01-25T03:10:05.662Z,0.10
2023-01-25T03:12:34.939Z,0.10
2023-01-25T03:15:01.513Z,0.10
2023-01-25T03:17:28.222Z,0.10
2023-01-25T03:19:55.745Z,0.00
2023-01-25T03:22:23.958Z,0.00
2023-01-25T03:24:51.811Z,0.00
2023-01-25T03:27:18.592Z,0.00
2023-01-25T03:29:52.758Z,0.00
2023-01-25T03:32:22.733Z,0.00
2023-01-25T03:34:50.138Z,0.00
2023-01-25T03:37:18.572Z,0.00
2023-01-25T03:39:45.409Z,-0.10
2023-01-25T03:42:13.241Z,-0.10
2023-01-25T03:44:40.040Z,-0.10
2023-01-25T03:47:06.968Z,-0.10
2023-01-25T03:49:33.709Z,-0.10
2023-01-25T03:52:01.319Z,-0.10
2023-01-25T03:54:36.228Z,-0.10
2023-01-25T03:57:03.365Z,-0.10
2023-01-25T03:59:33.442Z,-0.10
2023-01-25T04:02:00.145Z,-0.10
2023-01-25T04:04:26.845Z,-0.20
2023-01-25T04:06:53.864Z,-0.20
2023-01-25T04:09:23.236Z,-0.20
2023-01-25T04:11:52.910Z,-0.20
2023-01-25T04:14:31.763Z,-0.20
2023-01-25T04:17:05.393Z,-0.20
2023-01-25T04:19:58.925Z,-0.10
2023-01-25T04:22:31.675Z,-0.10
2023-01-25T04:24:58.560Z,-0.10
2023-01-25T04:27:25.219Z,-0.10
2023-01-25T04:30:02.565Z,-0.10
2023-01-25T04:32:30.501Z,-0.10
2023-01-25T04:34:58.836Z,-0.10
2023-01-25T04:37:28.102Z,-0.10
2023-01-25T04:39:58.071Z,-0.10
2023-01-25T04:42:26.105Z,-0.10
2023-01-25T04:44:55.828Z,-0.10
2023-01-25T04:47:22.971Z,-0.10
2023-01-25T04:49:49.688Z,-0.10
2023-01-25T04:52:19.669Z,-0.10
2023-01-25T04:54:46.674Z,-0.10
2023-01-25T04:57:13.261Z,0.00
2023-01-25T04:59:43.090Z,0.00
2023-01-25T05:02:09.953Z,0.00
2023-01-25T05:04:37.406Z,0.00
2023-01-25T05:07:04.124Z,0.00
2023-01-25T05:09:31.311Z,0.00
2023-01-25T05:11:58.789Z,0.00
2023-01-25T05:14:33.082Z,0.00
2023-01-25T05:17:07.134Z,0.00
2023-01-25T05:19:34.142Z,0.00
2023-01-25T05:22:07.497Z,0.00
2023-01-25T05:24:41.670Z,0.00
2023-01-25T05:27:11.867Z,0.00
2023-01-25T05:30:04.525Z,0.00
2023-01-25T05:32:57.127Z,-0.10
2023-01-25T05:35:24.536Z,-0.10
2023-01-25T05:37:58.896Z,-0.10
2023-01-25T05:40:26.579Z,-0.10
2023-01-25T05:42:59.896Z,-0.10
2023-01-25T05:45:30.083Z,-0.10
2023-01-25T05:47:58.723Z,-0.10
2023-01-25T05:50:26.995Z,-0.10
2023-01-25T05:53:03.575Z,-0.10
2023-01-25T05:55:30.512Z,-0.10
2023-01-25T05:58:02.133Z,-0.20
2023-01-25T06:00:28.883Z,-0.20
2023-01-25T06:02:59.739Z,-0.20
2023-01-25T06:05:26.562Z,-0.20
2023-01-25T06:07:54.552Z,-0.20
2023-01-25T06:10:24.276Z,-0.20
2023-01-25T06:12:51.411Z,-0.20
2023-01-25T06:15:18.017Z,-0.20
2023-01-25T06:17:44.808Z,-0.20
2023-01-25T06:20:37.633Z,-0.20
2023-01-25T06:23:07.215Z,-0.20
2023-01-25T06:25:33.768Z,-0.30
2023-01-25T06:28:00.594Z,-0.20
2023-01-25T06:30:27.282Z,-0.20
2023-01-25T06:32:53.902Z,-0.30
2023-01-25T06:35:20.613Z,-0.30
2023-01-25T06:37:47.504Z,-0.30
2023-01-25T06:40:14.445Z,-0.30
2023-01-25T06:42:41.145Z,-0.30
2023-01-25T06:45:08.424Z,-0.30
2023-01-25T06:47:35.320Z,-0.30
2023-01-25T06:50:02.072Z,-0.30
2023-01-25T06:52:28.686Z,-0.30
2023-01-25T06:54:55.343Z,-0.30
2023-01-25T06:57:22.009Z,-0.30
2023-01-25T06:59:48.601Z,-0.30
2023-01-25T07:02:16.178Z,-0.20
2023-01-25T07:04:43.093Z,-0.20
2023-01-25T07:07:10.478Z,-0.20
2023-01-25T07:09:37.243Z,-0.20
2023-01-25T07:12:06.848Z,-0.20
2023-01-25T07:14:33.795Z,-0.20
2023-01-25T07:17:02.851Z,-0.20
2023-01-25T07:19:30.404Z,-0.10
2023-01-25T07:21:57.275Z,-0.10
2023-01-25T07:24:27.071Z,-0.10
2023-01-25T07:26:53.868Z,-0.10
2023-01-25T07:29:21.065Z,-0.20
2023-01-25T07:31:47.724Z,-0.20
2023-01-25T07:34:14.452Z,-0.20
2023-01-25T07:36:41.569Z,-0.20
2023-01-25T07:39:10.545Z,-0.10
2023-01-25T07:41:37.762Z,-0.10
2023-01-25T07:44:04.604Z,-0.10
2023-01-25T07:46:38.491Z,-0.10
2023-01-25T07:49:05.086Z,-0.10
2023-01-25T07:51:31.797Z,0.00
2023-01-25T07:54:00.202Z,0.00
2023-01-25T07:56:29.455Z,0.00
2023-01-25T07:58:57.946Z,0.00
2023-01-25T08:01:27.363Z,0.00
2023-01-25T08:03:58.129Z,0.00
2023-01-25T08:06:35.491Z,0.00
2023-01-25T08:09:12.097Z,0.10
2023-01-25T08:11:39.333Z,0.00
2023-01-25T08:14:06.053Z,0.00
2023-01-25T08:16:32.776Z,0.00
2023-01-25T08:19:01.776Z,0.00
2023-01-25T08:21:30.881Z,0.10
2023-01-25T08:24:03.888Z,0.10
2023-01-25T08:26:30.979Z,0.10
2023-01-25T08:28:58.228Z,0.10
2023-01-25T08:31:28.146Z,0.10
2023-01-25T08:33:55.745Z,0.10
2023-01-25T08:36:24.272Z,0.20
2023-01-25T08:38:58.507Z,0.20
2023-01-25T08:41:26.012Z,0.20
2023-01-25T08:43:54.786Z,0.20
2023-01-25T08:46:23.895Z,0.30
2023-01-25T08:48:55.018Z,0.30
2023-01-25T08:51:22.176Z,0.30
2023-01-25T08:53:49.013Z,0.30
2023-01-25T08:56:16.847Z,0.20
2023-01-25T08:58:48.774Z,0.20
2023-01-25T09:01:17.332Z,0.20
2023-01-25T09:03:46.350Z,0.30
2023-01-25T09:06:14.053Z,0.30
2023-01-25T09:08:41.359Z,0.30
2023-01-25T09:11:11.406Z,0.30
2023-01-25T09:13:38.227Z,0.30
2023-01-25T09:16:08.095Z,0.30
2023-01-25T09:18:37.926Z,0.40
2023-01-25T09:21:12.706Z,0.40
2023-01-25T09:23:50.495Z,0.40
2023-01-25T09:26:18.063Z,0.40
2023-01-25T09:28:50.088Z,0.50
2023-01-25T09:31:22.051Z,0.50
2023-01-25T09:34:09.346Z,0.50
2023-01-25T09:36:36.718Z,0.60
2023-01-25T09:39:03.796Z,0.60
2023-01-25T09:41:54.755Z,0.60
2023-01-25T09:44:50.130Z,0.60
2023-01-25T09:47:55.926Z,0.60
2023-01-25T09:50:52.961Z,0.60
2023-01-25T09:53:19.758Z,0.70
2023-01-25T09:55:50.843Z,0.70
2023-01-25T09:58:22.971Z,0.70
2023-01-25T10:00:54.634Z,0.70
2023-01-25T10:03:40.489Z,0.70
2023-01-25T10:06:13.738Z,0.80
2023-01-25T10:08:57.004Z,0.80
2023-01-25T10:11:27.176Z,0.80
2023-01-25T10:13:56.323Z,0.80
2023-01-25T10:16:50.104Z,0.80
2023-01-25T10:19:58.258Z,0.80
2023-01-25T10:22:30.582Z,0.80
2023-01-25T10:25:21.178Z,0.90
2023-01-25T10:28:02.569Z,0.90
2023-01-25T10:30:54.172Z,0.90
2023-01-25T10:33:21.426Z,0.90
2023-01-25T10:35:50.078Z,0.90
2023-01-25T10:38:24.033Z,0.90
2023-01-25T10:41:02.245Z,0.90
2023-01-25T10:43:29.316Z,0.90
2023-01-25T10:45:56.058Z,0.90
2023-01-25T10:48:33.893Z,0.90
2023-01-25T10:51:00.910Z,0.90
2023-01-25T10:53:27.554Z,0.90
2023-01-25T10:56:16.930Z,0.80
2023-01-25T10:58:49.023Z,0.80
2023-01-25T11:01:31.058Z,0.80
2023-01-25T11:04:00.055Z,0.80
2023-01-25T11:06:51.435Z,0.80
2023-01-25T11:09:21.253Z,0.70
2023-01-25T11:12:18.940Z,0.70
2023-01-25T11:14:50.657Z,0.60
2023-01-25T11:17:25.595Z,0.50
2023-01-25T11:20:24.810Z,0.50
2023-01-25T11:22:56.945Z,0.50
2023-01-25T11:25:43.950Z,0.50
2023-01-25T11:28:11.825Z,0.50
2023-01-25T11:30:38.834Z,0.50
2023-01-25T11:33:11.607Z,0.50
2023-01-25T11:35:57.243Z,0.60
2023-01-25T11:38:24.673Z,0.60
2023-01-25T11:41:05.545Z,0.60
2023-01-25T11:44:04.627Z,0.60
2023-01-25T11:47:13.093Z,0.60
2023-01-25T11:49:48.562Z,0.60
2023-01-25T11:52:43.289Z,0.60
2023-01-25T11:55:26.974Z,0.60
2023-01-25T11:58:29.220Z,0.60
2023-01-25T12:01:11.739Z,0.70
2023-01-25T12:03:53.607Z,0.70
2023-01-25T12:06:48.299Z,0.70
2023-01-25T12:09:36.645Z,0.70
2023-01-25T12:12:12.117Z,0.70
2023-01-25T12:14:41.863Z,0.70
2023-01-25T12:17:26.806Z,0.70
2023-01-25T12:20:22.169Z,0.60
2023-01-25T12:22:51.888Z,0.70
2023-01-25T12:25:30.359Z,0.70
2023-01-25T12:28:12.965Z,0.70
2023-01-25T12:30:55.974Z,0.70
2023-01-25T12:33:43.000Z,0.70
2023-01-25T12:36:28.262Z,0.70
2023-01-25T12:39:15.729Z,0.70
2023-01-25T12:41:57.166Z,0.70
2023-01-25T12:44:43.438Z,0.70
2023-01-25T12:47:15.768Z,0.70
2023-01-25T12:49:50.990Z,0.70
2023-01-25T12:52:33.696Z,0.70
2023-01-25T12:55:07.178Z,0.60
2023-01-25T12:58:08.058Z,0.70
2023-01-25T13:00:57.486Z,0.70
2023-01-25T13:03:33.566Z,0.70
2023-01-25T13:06:13.217Z,0.70
2023-01-25T13:09:10.640Z,0.60
2023-01-25T13:11:42.257Z,0.60
2023-01-25T13:14:18.107Z,0.60
2023-01-25T13:17:22.182Z,0.50
2023-01-25T13:19:50.762Z,0.50
2023-01-25T13:22:54.950Z,0.40
2023-01-25T13:25:24.090Z,0.40
2023-01-25T13:27:50.956Z,0.40
2023-01-25T13:30:26.869Z,0.40
2023-01-25T13:32:57.824Z,0.30
2023-01-25T13:35:36.108Z,0.40
2023-01-25T13:38:26.219Z,0.40
2023-01-25T13:41:12.077Z,0.40
2023-01-25T13:43:40.602Z,0.50
2023-01-25T13:46:10.629Z,0.40
2023-01-25T13:48:55.437Z,0.40
2023-01-25T13:51:24.685Z,0.40
2023-01-25T13:54:00.636Z,0.40
2023-01-25T13:56:33.578Z,0.30
2023-01-25T13:59:00.596Z,0.30
2023-01-25T14:01:30.434Z,0.30
2023-01-25T14:04:01.867Z,0.40
2023-01-25T14:06:40.763Z,0.40
2023-01-25T14:09:21.082Z,0.40
2023-01-25T14:11:56.997Z,0.40
2023-01-25T14:14:28.336Z,0.40
2023-01-25T14:17:16.125Z,0.30
2023-01-25T14:19:55.639Z,0.40
2023-01-25T14:22:25.611Z,0.30
2023-01-25T14:25:23.947Z,0.40
2023-01-25T14:28:00.296Z,0.30
2023-01-25T14:30:30.107Z,0.30
2023-01-25T14:33:02.318Z,0.30
2023-01-25T14:35:42.987Z,0.30
2023-01-25T14:38:23.905Z,0.30
2023-01-25T14:41:02.019Z,0.30
2023-01-25T14:43:29.871Z,0.30
2023-01-25T14:45:57.183Z,0.30
2023-01-25T14:48:42.787Z,0.30
2023-01-25T14:51:22.035Z,0.30
2023-01-25T14:53:51.796Z,0.40
2023-01-25T14:56:29.851Z,0.30
2023-01-25T14:59:00.027Z,0.30
2023-01-25T15:01:36.054Z,0.30
2023-01-25T15:04:04.289Z,0.30
2023-01-25T15:06:31.615Z,0.30
2023-01-25T15:08:58.363Z,0.30
2023-01-25T15:11:45.552Z,0.30
2023-01-25T15:14:22.120Z,0.30
2023-01-25T15:16:48.969Z,0.30
2023-01-25T15:19:30.313Z,0.30
2023-01-25T15:21:59.498Z,0.30
2023-01-25T15:24:27.190Z,0.30
2023-01-25T15:26:55.299Z,0.30
2023-01-25T15:29:26.398Z,0.30
2023-01-25T15:31:55.296Z,0.30
2023-01-25T15:34:29.289Z,0.30
2023-01-25T15:36:56.377Z,0.30
2023-01-25T15:39:26.597Z,0.30
2023-01-25T15:41:53.379Z,0.20
2023-01-25T15:44:20.496Z,0.20
2023-01-25T15:46:50.631Z,0.20
2023-01-25T15:49:26.031Z,0.20
2023-01-25T15:51:53.937Z,0.20
2023-01-25T15:54:21.355Z,0.20
2023-01-25T15:56:54.625Z,0.20
2023-01-25T15:59:21.578Z,0.20
2023-01-25T16:01:48.373Z,0.20
2023-01-25T16:04:15.160Z,0.20
2023-01-25T16:06:48.483Z,0.20
2023-01-25T16:09:21.475Z,0.20
2023-01-25T16:11:51.689Z,0.20
2023-01-25T16:14:19.162Z,0.10
2023-01-25T16:16:49.159Z,0.10
2023-01-25T16:19:21.332Z,0.10
2023-01-25T16:21:48.853Z,0.20
2023-01-25T16:24:15.936Z,0.10
2023-01-25T16:26:53.330Z,0.10
2023-01-25T16:29:20.333Z,0.10
2023-01-25T16:31:47.370Z,0.10
2023-01-25T16:34:14.271Z,0.00
2023-01-25T16:36:41.390Z,0.00
2023-01-25T16:39:09.967Z,0.00
2023-01-25T16:41:37.089Z,0.00
2023-01-25T16:44:03.885Z,0.00
2023-01-25T16:46:30.813Z,-0.10
2023-01-25T16:48:59.527Z,0.00
2023-01-25T16:51:28.336Z,0.00
2023-01-25T16:53:56.723Z,0.00
2023-01-25T16:56:26.077Z,0.00
2023-01-25T16:58:54.787Z,0.00
2023-01-25T17:01:24.036Z,0.00
2023-01-25T17:03:51.763Z,0.00
2023-01-25T17:06:27.853Z,0.00
2023-01-25T17:09:02.141Z,0.00
2023-01-25T17:11:31.734Z,0.00
2023-01-25T17:14:00.277Z,0.00
2023-01-25T17:16:29.177Z,0.00
2023-01-25T17:19:05.064Z,-0.10
2023-01-25T17:21:32.646Z,-0.10
2023-01-25T17:24:01.262Z,-0.10
2023-01-25T17:26:30.265Z,-0.10
2023-01-25T17:28:58.721Z,-0.10
2023-01-25T17:31:27.894Z,-0.10
2023-01-25T17:33:55.229Z,-0.10
2023-01-25T17:36:22.041Z,-0.10
2023-01-25T17:38:48.675Z,-0.10
2023-01-25T17:41:17.059Z,-0.10
2023-01-25T17:43:43.833Z,-0.10
2023-01-25T17:46:21.648Z,-0.10
2023-01-25T17:48:48.381Z,-0.10
2023-01-25T17:51:14.997Z,-0.10
2023-01-25T17:53:41.840Z,-0.10
2023-01-25T17:56:10.302Z,-0.20
2023-01-25T17:58:37.991Z,-0.10
2023-01-25T18:01:16.867Z,-0.20
2023-01-25T18:03:45.064Z,-0.20
2023-01-25T18:06:16.580Z,-0.20
2023-01-25T18:08:45.681Z,-0.20
2023-01-25T18:11:15.365Z,-0.20
2023-01-25T18:13:51.899Z,-0.10
2023-01-25T18:16:22.177Z,-0.20
2023-01-25T18:18:51.369Z,-0.20
2023-01-25T18:21:25.106Z,-0.20
2023-01-25T18:23:57.271Z,-0.20
2023-01-25T18:26:33.410Z,-0.20
2023-01-25T18:29:21.482Z,-0.20
2023-01-25T18:31:48.577Z,-0.20
2023-01-25T18:34:15.288Z,-0.30
2023-01-25T18:36:41.892Z,-0.30
2023-01-25T18:39:09.174Z,-0.30
2023-01-25T18:41:35.980Z,-0.30
2023-01-25T18:44:02.713Z,-0.30
2023-01-25T18:46:30.263Z,-0.30
2023-01-25T18:48:57.070Z,-0.30
2023-01-25T18:51:23.663Z,-0.30
2023-01-25T18:53:51.126Z,-0.30
2023-01-25T18:56:20.604Z,-0.30
2023-01-25T18:58:48.549Z,-0.30
2023-01-25T19:01:20.322Z,-0.30
2023-01-25T19:03:48.338Z,-0.30
2023-01-25T19:06:16.211Z,-0.30
2023-01-25T19:08:44.466Z,-0.30
2023-01-25T19:11:13.454Z,-0.30
2023-01-25T19:13:41.921Z,-0.40
2023-01-25T19:16:12.418Z,-0.40
2023-01-25T19:18:45.756Z,-0.40
2023-01-25T19:21:14.732Z,-0.40
2023-01-25T19:23:42.125Z,-0.40
2023-01-25T19:26:12.011Z,-0.40
2023-01-25T19:28:39.220Z,-0.50
2023-01-25T19:31:12.145Z,-0.50
2023-01-25T19:33:39.285Z,-0.50
2023-01-25T19:36:09.092Z,-0.50
2023-01-25T19:38:39.197Z,-0.40
2023-01-25T19:41:11.101Z,-0.50
2023-01-25T19:43:37.865Z,-0.40
2023-01-25T19:46:13.300Z,-0.50
2023-01-25T19:48:40.770Z,-0.50
2023-01-25T19:51:12.644Z,-0.50
2023-01-25T19:53:40.876Z,-0.50
2023-01-25T19:56:09.330Z,-0.50
2023-01-25T19:58:36.171Z,-0.50
2023-01-25T20:01:19.428Z,-0.50
2023-01-25T20:03:47.077Z,-0.50
2023-01-25T20:06:15.047Z,-0.50
2023-01-25T20:08:44.072Z,-0.50
2023-01-25T20:11:14.345Z,-0.40
2023-01-25T20:13:41.909Z,-0.50
2023-01-25T20:16:10.509Z,-0.50
2023-01-25T20:18:37.399Z,-0.50
2023-01-25T20:21:07.191Z,-0.50
2023-01-25T20:23:36.335Z,-0.50
2023-01-25T20:26:06.535Z,-0.50
2023-01-25T20:28:35.506Z,-0.50
2023-01-25T20:31:05.854Z,-0.50
2023-01-25T20:33:35.511Z,-0.60
2023-01-25T20:36:04.558Z,-0.60
2023-01-25T20:38:36.564Z,-0.60
2023-01-25T20:41:08.745Z,-0.60
2023-01-25T20:43:35.799Z,-0.60
2023-01-25T20:46:03.243Z,-0.60
2023-01-25T20:48:36.219Z,-0.70
2023-01-25T20:51:05.206Z,-0.70
2023-01-25T20:53:33.420Z,-0.70
2023-01-25T20:56:00.451Z,-0.70
2023-01-25T20:58:28.242Z,-0.70
2023-01-25T21:00:55.284Z,-0.70
2023-01-25T21:03:22.618Z,-0.80
2023-01-25T21:05:57.654Z,-0.80
2023-01-25T21:08:25.334Z,-0.70
2023-01-25T21:10:57.679Z,-0.70
2023-01-25T21:13:25.589Z,-0.70
2023-01-25T21:15:59.384Z,-0.70
2023-01-25T21:18:31.420Z,-0.70
2023-01-25T21:21:10.120Z,-0.70
2023-01-25T21:23:39.390Z,-0.80
2023-01-25T21:26:07.548Z,-0.80
2023-01-25T21:28:35.374Z,-0.80
2023-01-25T21:31:13.386Z,-0.80
2023-01-25T21:33:40.917Z,-0.80
2023-01-25T21:36:09.162Z,-0.80
2023-01-25T21:38:36.207Z,-0.80
2023-01-25T21:41:04.425Z,-0.90
2023-01-25T21:43:52.117Z,-0.90
2023-01-25T21:46:25.455Z,-0.90
2023-01-25T21:49:12.197Z,-0.90
2023-01-25T21:51:46.908Z,-1.00
2023-01-25T21:54:18.593Z,-1.00
2023-01-25T21:56:46.970Z,-1.00
2023-01-25T21:59:13.908Z,-0.90
2023-01-25T22:01:42.870Z,-0.90
2023-01-25T22:04:10.330Z,-0.90
2023-01-25T22:06:37.418Z,-0.90
2023-01-25T22:09:04.741Z,-0.90
2023-01-25T22:11:32.038Z,-0.90
2023-01-25T22:13:59.000Z,-0.90
2023-01-25T22:16:26.106Z,-0.90
2023-01-25T22:18:52.968Z,-0.90
2023-01-25T22:21:23.218Z,-0.90
2023-01-25T22:23:50.785Z,-0.90
2023-01-25T22:26:20.266Z,-0.90
2023-01-25T22:28:58.415Z,-0.90
2023-01-25T22:31:27.569Z,-1.00
2023-01-25T22:33:55.667Z,-1.00
2023-01-25T22:36:24.552Z,-1.00
2023-01-25T22:38:51.779Z,-1.00
2023-01-25T22:41:20.565Z,-1.00
2023-01-25T22:43:47.281Z,-1.00
2023-01-25T22:46:17.091Z,-1.00
2023-01-25T22:48:44.192Z,-1.00
2023-01-25T22:51:19.915Z,-1.00
2023-01-25T22:53:46.965Z,-0.90
2023-01-25T22:56:16.625Z,-0.90
2023-01-25T22:58:44.858Z,-0.90
2023-01-25T23:01:13.546Z,-0.90
2023-01-25T23:03:40.573Z,-0.90
2023-01-25T23:06:11.630Z,-0.90
2023-01-25T23:08:38.903Z,-0.90
2023-01-25T23:11:11.990Z,-0.90
2023-01-25T23:13:39.829Z,-0.90
2023-01-25T23:16:09.225Z,-0.90
2023-01-25T23:18:52.008Z,-0.90
2023-01-25T23:21:25.567Z,-0.90
2023-01-25T23:23:53.331Z,-0.90
2023-01-25T23:26:20.621Z,-0.90
2023-01-25T23:28:51.934Z,-0.90
2023-01-25T23:31:21.643Z,-0.90
2023-01-25T23:33:51.004Z,-0.90
2023-01-25T23:36:21.163Z,-0.90
2023-01-25T23:38:48.701Z,-0.90
2023-01-25T23:41:16.638Z,-0.90
2023-01-25T23:43:43.504Z,-0.90
2023-01-25T23:46:10.919Z,-1.00
2023-01-25T23:48:37.596Z,-1.00
2023-01-25T23:51:04.262Z,-1.00
2023-01-25T23:53:31.520Z,-1.00
2023-01-25T23:56:03.267Z,-1.10
2023-01-25T23:58:29.986Z,-1.10
